Briefing drone pour Marsannay-la-cote

Rechercher une autre localisation

Conditions de vol :


Nous sommes le : Vendredi 07 mai 2021
Il est 00:55 UTC (02:55 LT)

Lever de soleil : 03:47 UTC (05:47 LT)
Coucher de soleil : 19:25 UTC (21:25 LT)

Météo

L'essentiel des conditions de vol

VIGILANCE MÉTÉO FRANCE - Côte-dOr (21)
Vigilance Jaune : Vent violent / Orages
CARTE TEMSI
CARTES DES FRONTS
METAR de LFSD
LFSD 070030Z AUTO 20009KT 9999 FEW032 BKN074 BKN092 11/07 Q1010

Date d'émission: 07/05/2021
Heure d'émission: 00:30 UTC
Vent: 200° pour 9 KT (17 km/h)
Visibilité horizontale: > 10 km
Plafond :
- Peu de nuages à 3200ft (975m)
- Nuages morcelés à 7400ft (2256m)
- Nuages morcelés à 9200ft (2804m)
Température: 11 °C
Point de rosée: 7 °C
Humidité: 76%
Pression (QNH): 1010 hPa
TAF de LFSD
LFSD 010600Z 0100/0124 CNL

Conditions prévues :

Heure d'émission : Bulletin éffectué le 01 à 00:00 UTC
Prévision : Valide du 01 a 00:00 UTC au 01 a 23:59 UTC
Nuages : à 0ft (0 m)
WEBCAM POUR MARSANNAY-LA-COTE

Réglementation

Voler en sécurité

CARTES AERONAUTIQUE 1/500.000
CARTES VAC (LFSD)
SUP AIP




Chargement des AIP...
NOTAM (MARSANNAY-LA-COTE + Terrain à proximité / FIR )




Chargement des NOTAMS...
CONTACT PREFECTURE 21
Côte-dOr (21) : pref-drone@cote-dor.gouv.fr


Avertissement : Les données mises à disposition sont indicatives. Oxygène Drone ne pourra être tenu responsable de dégâts causés aux biens et aux personnes.